Time;durP1;ratioP1;P1;durP2;ratioP2;P2;SDS_P1;SDS_P2;PMS_P1;PMS_P2;Temp;Humidity;BMP_temperature;BMP_pressure;BME280_temperature;BME280_humidity;BME280_pressure;Samples;Min_cycle;Max_cycle;Signal;HPM_P1;HPM_P2
2023/06/21 00:01:11;;;;;;;5.37;3.73;;;25.90;30.60;;;;;;10431291;28;20230;-70
2023/06/21 00:06:14;;;;;;;6.53;3.93;;;25.90;31.70;;;;;;10427863;28;20273;-70
2023/06/21 00:11:19;;;;;;;7.43;3.80;;;25.90;31.20;;;;;;10431607;28;20236;-71
2023/06/21 00:16:24;;;;;;;4.93;3.73;;;25.80;32.10;;;;;;10432935;28;20598;-70
2023/06/21 00:21:27;;;;;;;5.90;3.77;;;25.60;32.50;;;;;;10433367;28;20235;-70
2023/06/21 00:26:30;;;;;;;7.33;3.80;;;25.30;32.00;;;;;;10436714;28;20232;-70
2023/06/21 00:31:35;;;;;;;4.83;3.50;;;25.20;32.10;;;;;;10429343;28;20808;-69
2023/06/21 00:36:41;;;;;;;6.40;3.40;;;25.20;33.00;;;;;;10433730;28;20708;-70
2023/06/21 00:41:45;;;;;;;6.33;3.70;;;25.10;32.30;;;;;;10434740;28;20243;-70
2023/06/21 00:46:50;;;;;;;4.17;3.47;;;25.10;32.90;;;;;;10423632;28;20679;-70
2023/06/21 00:51:57;;;;;;;5.97;3.90;;;25.10;33.50;;;;;;10431011;28;20257;-70
2023/06/21 00:57:01;;;;;;;5.17;3.90;;;25.10;33.10;;;;;;10429946;28;20230;-70
2023/06/21 01:02:06;;;;;;;5.13;3.53;;;25.10;33.50;;;;;;10431634;28;20235;-70
2023/06/21 01:07:19;;;;;;;4.63;3.70;;;25.10;33.90;;;;;;10428826;28;20279;-70
2023/06/21 01:12:33;;;;;;;3.80;3.47;;;25.10;34.50;;;;;;10434383;28;20358;-70
2023/06/21 01:17:41;;;;;;;3.90;3.50;;;25.10;34.80;;;;;;10441451;28;20237;-69
2023/06/21 01:22:55;;;;;;;5.57;3.60;;;25.00;34.40;;;;;;10424644;28;20236;-69
2023/06/21 01:28:30;;;;;;;6.47;3.83;;;25.00;35.00;;;;;;10435236;28;20713;-70
2023/06/21 01:33:36;;;;;;;4.93;4.23;;;25.00;34.30;;;;;;10430219;28;20249;-70
2023/06/21 01:38:39;;;;;;;7.13;3.20;;;24.90;34.40;;;;;;10427454;28;21030;-70
2023/06/21 01:43:42;;;;;;;6.77;4.50;;;24.80;33.60;;;;;;10431958;28;20227;-69
2023/06/21 01:48:48;;;;;;;6.23;3.93;;;24.70;33.80;;;;;;10442751;28;20228;-70
2023/06/21 01:53:52;;;;;;;5.67;3.87;;;24.50;34.80;;;;;;10430867;28;20227;-70
2023/06/21 01:58:55;;;;;;;9.07;4.23;;;24.40;34.30;;;;;;10429210;28;20606;-70
2023/06/21 02:04:01;;;;;;;5.40;4.20;;;24.30;34.10;;;;;;10435385;28;20237;-69
2023/06/21 02:09:06;;;;;;;7.07;4.07;;;24.20;35.50;;;;;;10437910;28;20217;-69
2023/06/21 02:14:09;;;;;;;4.63;4.13;;;24.10;34.60;;;;;;10423959;28;20959;-69
2023/06/21 02:19:13;;;;;;;4.70;3.53;;;24.00;34.90;;;;;;10424474;28;20232;-69
2023/06/21 02:24:17;;;;;;;7.07;3.97;;;23.90;35.40;;;;;;10430259;28;20300;-69
2023/06/21 02:29:20;;;;;;;5.70;4.03;;;23.80;35.20;;;;;;10427271;28;20245;-69
2023/06/21 02:34:25;;;;;;;10.47;4.20;;;23.80;35.30;;;;;;10431806;28;20325;-70
2023/06/21 02:39:28;;;;;;;6.43;4.40;;;23.70;36.90;;;;;;10446041;28;20234;-69
2023/06/21 02:44:32;;;;;;;7.10;4.70;;;23.70;35.90;;;;;;10425439;28;20228;-69
2023/06/21 02:49:36;;;;;;;5.00;4.00;;;23.70;36.00;;;;;;10430975;28;20595;-69
2023/06/21 02:54:40;;;;;;;7.83;4.27;;;23.60;36.80;;;;;;10426103;28;20231;-69
2023/06/21 02:59:43;;;;;;;6.80;4.30;;;23.60;36.20;;;;;;10427923;28;20268;-69
2023/06/21 03:04:47;;;;;;;4.87;3.80;;;23.60;36.40;;;;;;10422011;28;20268;-69
2023/06/21 03:09:50;;;;;;;9.43;4.30;;;23.60;36.80;;;;;;10433236;28;20236;-70
2023/06/21 03:14:54;;;;;;;8.43;3.83;;;23.70;36.30;;;;;;10427877;28;20233;-70
2023/06/21 03:19:58;;;;;;;5.43;4.40;;;23.70;36.10;;;;;;10437222;28;20230;-69
2023/06/21 03:25:01;;;;;;;4.77;3.97;;;23.60;37.00;;;;;;10429755;28;20237;-70
2023/06/21 03:30:06;;;;;;;6.60;4.20;;;23.60;36.30;;;;;;10426389;28;20248;-69
2023/06/21 03:35:10;;;;;;;5.27;4.23;;;23.50;36.70;;;;;;10432020;28;20597;-69
2023/06/21 03:40:14;;;;;;;6.50;4.57;;;23.50;37.10;;;;;;10430120;28;20229;-69
2023/06/21 03:45:17;;;;;;;8.87;4.57;;;23.50;36.70;;;;;;10423825;28;20311;-70
2023/06/21 03:50:22;;;;;;;5.90;4.17;;;23.30;36.90;;;;;;10438945;28;20224;-70
2023/06/21 03:55:26;;;;;;;8.23;4.60;;;23.20;37.70;;;;;;10430097;28;20230;-70
2023/06/21 04:00:29;;;;;;;6.13;4.17;;;23.20;37.40;;;;;;10430461;28;20230;-70
2023/06/21 04:05:34;;;;;;;5.87;4.10;;;23.20;37.50;;;;;;10429114;28;20232;-70
2023/06/21 04:10:37;;;;;;;7.53;4.53;;;23.10;38.40;;;;;;10433242;28;20237;-70
2023/06/21 04:15:41;;;;;;;6.87;4.37;;;23.10;38.00;;;;;;10435126;28;20717;-70
2023/06/21 04:20:46;;;;;;;7.30;4.97;;;23.00;38.20;;;;;;10431364;28;20233;-69
2023/06/21 04:25:49;;;;;;;6.27;4.30;;;22.90;39.10;;;;;;10426945;28;20315;-70
2023/06/21 04:30:54;;;;;;;8.77;4.77;;;22.90;38.80;;;;;;10432690;28;20228;-70
2023/06/21 04:35:59;;;;;;;6.93;5.07;;;22.90;38.90;;;;;;10423569;28;20321;-67
2023/06/21 04:41:02;;;;;;;7.10;4.90;;;22.90;39.30;;;;;;10436478;28;20229;-67
2023/06/21 04:46:05;;;;;;;5.60;5.00;;;22.90;39.10;;;;;;10430704;28;20229;-68
2023/06/21 04:51:15;;;;;;;7.57;5.00;;;22.90;39.10;;;;;;10441228;28;20233;-68
2023/06/21 04:56:18;;;;;;;8.53;4.87;;;22.90;40.20;;;;;;10435892;28;20228;-68
2023/06/21 05:01:21;;;;;;;6.63;5.37;;;22.90;39.40;;;;;;10439982;28;20220;-69
2023/06/21 05:06:26;;;;;;;5.97;4.93;;;22.90;40.00;;;;;;10441433;28;20240;-69
2023/06/21 05:11:29;;;;;;;7.87;5.30;;;22.90;41.10;;;;;;10435795;28;20763;-69
2023/06/21 05:16:33;;;;;;;8.83;5.67;;;23.00;40.30;;;;;;10440246;28;20924;-69
2023/06/21 05:21:37;;;;;;;6.77;5.20;;;23.00;40.70;;;;;;10444803;28;20228;-69
2023/06/21 05:26:44;;;;;;;7.77;4.87;;;23.10;41.50;;;;;;10442019;28;20232;-69
2023/06/21 05:31:47;;;;;;;6.07;4.70;;;23.30;40.80;;;;;;10446355;28;20231;-69
2023/06/21 05:36:51;;;;;;;11.43;4.50;;;23.50;41.40;;;;;;10442784;28;20339;-69
2023/06/21 05:41:54;;;;;;;6.83;4.40;;;23.60;41.30;;;;;;10438531;28;20237;-69
2023/06/21 05:46:58;;;;;;;6.20;4.20;;;23.90;40.60;;;;;;10435860;28;20716;-69
2023/06/21 05:52:02;;;;;;;8.00;4.70;;;24.10;40.10;;;;;;10431927;28;20709;-72
2023/06/21 05:57:06;;;;;;;6.23;4.80;;;24.30;40.30;;;;;;10426659;28;20581;-67
2023/06/21 06:02:10;;;;;;;6.57;4.20;;;24.50;40.50;;;;;;10426221;28;20753;-66
2023/06/21 06:07:14;;;;;;;7.17;4.57;;;24.60;40.50;;;;;;10433155;28;20237;-67
2023/06/21 06:12:18;;;;;;;5.97;4.23;;;24.80;40.60;;;;;;10433727;28;20223;-66
2023/06/21 06:17:21;;;;;;;8.70;4.63;;;24.90;39.70;;;;;;10425505;28;20259;-67
2023/06/21 06:22:27;;;;;;;9.67;5.50;;;25.00;39.90;;;;;;10435393;28;20993;-66
2023/06/21 06:27:30;;;;;;;5.60;4.33;;;25.10;41.00;;;;;;10430180;28;20230;-67
2023/06/21 06:32:34;;;;;;;6.50;4.70;;;25.20;39.90;;;;;;10426680;28;20725;-66
2023/06/21 06:37:38;;;;;;;8.47;5.00;;;25.20;39.80;;;;;;10428096;28;20236;-66
2023/06/21 06:42:41;;;;;;;9.30;5.40;;;25.30;40.00;;;;;;10438731;28;20728;-66
2023/06/21 06:47:44;;;;;;;6.83;5.17;;;25.40;39.70;;;;;;10436293;28;20243;-67
2023/06/21 06:52:49;;;;;;;7.13;4.80;;;25.50;39.50;;;;;;10430003;28;20587;-66
2023/06/21 06:57:52;;;;;;;7.93;5.70;;;25.50;40.10;;;;;;10443464;28;20335;-68
2023/06/21 07:03:08;;;;;;;5.87;5.27;;;25.60;40.00;;;;;;10436397;28;20232;-67
2023/06/21 07:08:13;;;;;;;5.90;5.27;;;25.70;39.80;;;;;;10435975;28;20278;-67
2023/06/21 07:13:17;;;;;;;7.17;6.43;;;25.80;40.20;;;;;;10441397;28;20303;-66
2023/06/21 07:18:20;;;;;;;7.97;6.00;;;26.00;39.70;;;;;;10430358;28;20722;-66
2023/06/21 07:23:27;;;;;;;8.90;5.60;;;26.10;39.60;;;;;;10436802;28;20230;-67
2023/06/21 07:28:30;;;;;;;9.20;6.47;;;26.30;40.10;;;;;;10429953;28;20315;-66
2023/06/21 07:33:33;;;;;;;8.77;6.70;;;26.40;39.60;;;;;;10425594;28;20225;-66
2023/06/21 07:38:38;;;;;;;11.67;6.93;;;26.60;39.50;;;;;;10429475;28;20604;-67
2023/06/21 07:43:41;;;;;;;9.20;6.80;;;26.70;39.50;;;;;;10429115;28;20231;-67
2023/06/21 07:48:45;;;;;;;7.40;6.63;;;26.80;39.20;;;;;;10430605;28;20247;-66
2023/06/21 07:53:49;;;;;;;8.73;6.60;;;27.00;39.20;;;;;;10435153;28;20601;-66
2023/06/21 07:58:52;;;;;;;7.50;6.50;;;27.10;39.50;;;;;;10433923;28;20245;-66
2023/06/21 08:03:55;;;;;;;7.97;6.77;;;27.30;39.10;;;;;;10423421;28;20740;-66
2023/06/21 08:09:00;;;;;;;7.70;6.33;;;27.50;39.00;;;;;;10432420;28;20239;-67
2023/06/21 08:14:04;;;;;;;7.87;6.20;;;27.70;38.00;;;;;;10429826;28;20249;-67
2023/06/21 08:19:07;;;;;;;7.40;6.20;;;27.90;38.20;;;;;;10434074;28;20237;-67
2023/06/21 08:24:12;;;;;;;6.93;6.20;;;28.20;37.70;;;;;;10430602;28;20350;-67
2023/06/21 08:29:15;;;;;;;7.17;6.57;;;28.40;37.20;;;;;;10433415;28;20229;-66
2023/06/21 08:34:18;;;;;;;7.30;6.60;;;28.60;37.30;;;;;;10432665;28;20738;-66
2023/06/21 08:39:23;;;;;;;6.67;6.10;;;28.90;36.80;;;;;;10432683;28;21468;-70
2023/06/21 08:44:26;;;;;;;6.87;6.27;;;29.20;36.10;;;;;;10429241;28;20225;-71
2023/06/21 08:49:34;;;;;;;6.97;6.27;;;29.50;35.40;;;;;;10436519;28;20239;-71
2023/06/21 08:54:44;;;;;;;6.17;5.70;;;29.70;34.30;;;;;;10424757;28;20238;-71
2023/06/21 08:59:51;;;;;;;7.33;6.13;;;29.90;33.20;;;;;;10431270;28;20240;-70
2023/06/21 09:05:00;;;;;;;6.83;6.23;;;30.10;32.50;;;;;;10436119;28;20229;-71
2023/06/21 09:10:07;;;;;;;7.10;6.50;;;30.30;32.00;;;;;;10432305;28;20627;-70
2023/06/21 09:15:11;;;;;;;7.47;6.87;;;30.50;32.40;;;;;;10437185;28;20233;-71
2023/06/21 09:20:15;;;;;;;7.53;6.93;;;30.60;33.00;;;;;;10434526;28;20229;-71
2023/06/21 09:25:20;;;;;;;7.27;6.67;;;30.90;32.70;;;;;;10429750;28;20777;-70
2023/06/21 09:30:24;;;;;;;8.43;7.50;;;31.00;31.80;;;;;;10424547;28;20228;-71
2023/06/21 09:35:30;;;;;;;7.50;6.80;;;31.10;31.80;;;;;;10427956;28;20224;-71
2023/06/21 09:40:43;;;;;;;7.47;6.77;;;31.20;31.60;;;;;;10437150;28;20236;-71
2023/06/21 09:45:59;;;;;;;7.23;6.63;;;31.20;30.30;;;;;;10423636;28;20254;-71
2023/06/21 09:51:03;;;;;;;7.23;6.60;;;31.30;30.40;;;;;;10432771;28;20221;-70
2023/06/21 09:56:07;;;;;;;7.43;6.63;;;31.40;30.70;;;;;;10445629;28;20235;-71
2023/06/21 10:01:14;;;;;;;9.03;6.83;;;31.50;30.00;;;;;;10425007;28;20588;-70
2023/06/21 10:06:29;;;;;;;6.90;6.30;;;31.70;29.60;;;;;;10433655;28;20240;-71
2023/06/21 10:11:35;;;;;;;6.63;6.03;;;31.80;29.70;;;;;;10432877;28;20234;-71
2023/06/21 10:16:39;;;;;;;7.43;6.53;;;31.90;28.70;;;;;;10431345;28;20240;-71
2023/06/21 10:21:43;;;;;;;7.00;6.30;;;32.00;28.80;;;;;;10432090;28;20716;-71
2023/06/21 10:26:49;;;;;;;6.53;6.03;;;32.10;28.70;;;;;;10449401;28;20239;-71
2023/06/21 10:31:56;;;;;;;7.00;6.40;;;32.00;28.40;;;;;;10439202;28;20235;-71
2023/06/21 10:37:07;;;;;;;15.23;5.20;;;31.90;28.00;;;;;;10432499;28;20691;-72
2023/06/21 10:42:11;;;;;;;9.67;4.73;;;31.50;27.80;;;;;;10433452;28;20305;-72
2023/06/21 10:47:17;;;;;;;9.27;3.70;;;30.70;28.20;;;;;;10443268;28;20227;-71
2023/06/21 10:52:22;;;;;;;11.90;4.57;;;29.60;28.60;;;;;;10428570;28;20239;-69
2023/06/21 10:57:29;;;;;;;6.37;3.90;;;28.70;29.70;;;;;;10420377;28;20225;-71
2023/06/21 11:02:32;;;;;;;8.83;3.70;;;27.90;30.70;;;;;;10419265;28;20233;-71
2023/06/21 11:07:35;;;;;;;6.80;3.50;;;27.20;30.70;;;;;;10426372;28;20228;-71
2023/06/21 11:12:40;;;;;;;4.17;2.90;;;26.60;31.60;;;;;;10417339;28;20900;-70
2023/06/21 11:17:43;;;;;;;8.10;3.20;;;26.30;33.20;;;;;;10441181;28;20943;-71
2023/06/21 11:22:57;;;;;;;6.07;3.60;;;26.10;33.10;;;;;;10428159;28;20379;-71
2023/06/21 11:28:23;;;;;;;9.50;2.63;;;26.00;34.20;;;;;;10434076;28;20229;-71
2023/06/21 11:33:29;;;;;;;4.63;2.97;;;26.00;34.20;;;;;;10428621;28;20229;-70
2023/06/21 11:38:34;;;;;;;6.27;3.40;;;26.00;33.90;;;;;;10424301;28;20229;-71
2023/06/21 11:43:42;;;;;;;5.80;3.17;;;26.10;34.20;;;;;;10422124;28;20279;-70
2023/06/21 11:48:46;;;;;;;7.60;3.40;;;26.00;33.70;;;;;;10426142;28;20229;-70
2023/06/21 11:53:50;;;;;;;8.67;3.60;;;25.80;33.90;;;;;;10424055;28;20237;-69
2023/06/21 11:58:54;;;;;;;8.60;4.03;;;25.60;35.00;;;;;;10422794;28;20316;-69
2023/06/21 12:03:58;;;;;;;9.13;3.60;;;25.50;36.70;;;;;;10415094;28;20229;-70
2023/06/21 12:09:02;;;;;;;6.57;3.40;;;25.40;35.70;;;;;;10421865;28;20697;-67
2023/06/21 12:14:08;;;;;;;7.67;3.17;;;25.40;35.50;;;;;;10418541;28;20233;-66
2023/06/21 12:19:12;;;;;;;6.33;3.57;;;25.20;36.90;;;;;;10432095;28;20242;-66
2023/06/21 12:24:15;;;;;;;6.30;3.30;;;25.20;36.60;;;;;;10418858;28;20227;-67
2023/06/21 12:29:20;;;;;;;7.37;3.80;;;25.20;36.50;;;;;;10425579;28;20628;-66
2023/06/21 12:34:24;;;;;;;6.47;3.57;;;25.40;36.90;;;;;;10424824;28;20649;-66
2023/06/21 12:39:27;;;;;;;6.33;3.80;;;25.50;36.70;;;;;;10424221;28;20265;-66
2023/06/21 12:44:32;;;;;;;5.47;3.30;;;25.70;36.30;;;;;;10428670;28;20308;-66
2023/06/21 12:49:36;;;;;;;5.80;3.53;;;25.90;36.80;;;;;;10428498;28;20256;-66
2023/06/21 12:54:52;;;;;;;6.63;3.47;;;26.10;36.30;;;;;;10426742;28;20294;-70
2023/06/21 12:59:57;;;;;;;7.57;3.20;;;26.30;36.70;;;;;;10437826;28;20224;-70
2023/06/21 13:05:01;;;;;;;4.53;3.23;;;26.40;35.90;;;;;;10427245;28;20333;-70
2023/06/21 13:10:05;;;;;;;6.80;3.57;;;26.50;35.60;;;;;;10425257;28;20853;-70
2023/06/21 13:15:11;;;;;;;5.37;2.93;;;26.50;35.30;;;;;;10425230;28;20344;-70
2023/06/21 13:20:16;;;;;;;6.37;2.80;;;26.50;35.40;;;;;;10427501;28;20225;-70
2023/06/21 13:25:20;;;;;;;4.73;3.30;;;26.60;35.30;;;;;;10436674;28;20851;-70
2023/06/21 13:30:24;;;;;;;3.97;3.17;;;26.70;35.20;;;;;;10425423;28;20225;-70
2023/06/21 13:35:28;;;;;;;5.50;3.30;;;26.70;35.80;;;;;;10425996;28;20228;-70
2023/06/21 13:40:31;;;;;;;6.60;3.20;;;26.80;35.40;;;;;;10442630;28;20228;-70
2023/06/21 13:45:36;;;;;;;5.90;3.37;;;26.90;35.30;;;;;;10427345;28;20234;-70
2023/06/21 13:50:40;;;;;;;5.47;3.33;;;26.90;35.00;;;;;;10427962;28;20352;-70
2023/06/21 13:55:43;;;;;;;5.13;3.50;;;27.00;35.20;;;;;;10429234;28;20260;-70
2023/06/21 14:00:48;;;;;;;8.40;3.47;;;27.00;35.40;;;;;;10421457;28;20241;-70
2023/06/21 14:05:51;;;;;;;3.93;2.97;;;27.00;35.00;;;;;;10426307;28;20738;-71
2023/06/21 14:10:54;;;;;;;3.97;2.67;;;27.00;34.70;;;;;;10432131;28;20233;-71
2023/06/21 14:15:59;;;;;;;6.20;3.03;;;27.10;35.00;;;;;;10432005;28;20317;-71
2023/06/21 14:21:02;;;;;;;6.57;3.30;;;27.10;34.90;;;;;;10432735;28;20244;-70
2023/06/21 14:26:05;;;;;;;5.63;3.57;;;27.30;34.80;;;;;;10425481;28;20698;-71
2023/06/21 14:31:10;;;;;;;5.93;3.20;;;27.40;35.10;;;;;;10437288;28;20244;-71
2023/06/21 14:36:13;;;;;;;5.57;2.90;;;27.50;34.40;;;;;;10418604;28;20287;-71
2023/06/21 14:41:16;;;;;;;4.57;3.10;;;27.50;34.20;;;;;;10424727;28;20217;-71
2023/06/21 14:46:21;;;;;;;5.67;3.47;;;27.60;34.20;;;;;;10428424;28;20232;-71
2023/06/21 14:51:24;;;;;;;5.67;3.50;;;27.60;34.30;;;;;;10430744;28;20236;-71
2023/06/21 14:56:27;;;;;;;5.37;3.87;;;27.60;34.30;;;;;;10430163;28;20290;-71
2023/06/21 15:01:32;;;;;;;4.57;3.30;;;27.70;34.10;;;;;;10445507;28;20793;-71
2023/06/21 15:06:37;;;;;;;4.47;3.53;;;27.70;34.40;;;;;;10438128;28;20282;-71
2023/06/21 15:11:41;;;;;;;7.60;3.70;;;27.80;34.50;;;;;;10445904;28;20243;-70
2023/06/21 15:16:46;;;;;;;5.67;3.37;;;27.90;34.40;;;;;;10433625;28;20236;-71
2023/06/21 15:21:49;;;;;;;5.67;3.10;;;28.00;34.10;;;;;;10430585;28;20237;-71
2023/06/21 15:26:53;;;;;;;6.77;3.70;;;28.10;34.20;;;;;;10433783;28;20311;-71
2023/06/21 15:31:58;;;;;;;5.10;3.50;;;28.20;34.10;;;;;;10435797;28;20228;-71
2023/06/21 15:37:01;;;;;;;4.30;3.43;;;28.30;33.70;;;;;;10435776;28;20789;-71
2023/06/21 15:42:05;;;;;;;4.27;3.30;;;28.40;33.70;;;;;;10441555;28;20225;-71
2023/06/21 15:47:10;;;;;;;4.67;3.30;;;28.50;33.50;;;;;;10435368;28;20323;-70
2023/06/21 15:52:14;;;;;;;4.37;3.57;;;28.60;33.20;;;;;;10443893;28;20307;-70
2023/06/21 15:57:18;;;;;;;3.60;3.00;;;28.70;33.10;;;;;;10435912;28;20716;-69
2023/06/21 16:02:24;;;;;;;4.87;3.07;;;28.70;32.50;;;;;;10435436;28;20236;-69
2023/06/21 16:07:28;;;;;;;6.77;3.30;;;28.80;32.30;;;;;;10429257;28;20737;-69
2023/06/21 16:12:31;;;;;;;6.13;3.10;;;28.80;32.30;;;;;;10435422;28;20236;-69
2023/06/21 16:17:35;;;;;;;5.70;3.03;;;28.90;32.30;;;;;;10442667;28;20225;-69
2023/06/21 16:22:39;;;;;;;5.20;3.30;;;28.90;31.90;;;;;;10434064;28;20243;-66
2023/06/21 16:27:42;;;;;;;3.07;2.80;;;28.90;32.20;;;;;;10430308;28;20768;-66
2023/06/21 16:32:46;;;;;;;4.33;3.33;;;28.90;32.20;;;;;;10424036;28;20239;-69
2023/06/21 16:37:50;;;;;;;3.50;3.20;;;28.90;31.60;;;;;;10429304;28;20267;-69
2023/06/21 16:42:53;;;;;;;3.13;2.83;;;28.90;31.50;;;;;;10422969;28;20233;-69
2023/06/21 16:47:58;;;;;;;5.73;3.10;;;28.90;31.40;;;;;;10428021;28;20689;-70
2023/06/21 16:53:01;;;;;;;5.60;3.30;;;28.90;31.70;;;;;;10426298;28;20225;-70
2023/06/21 16:58:05;;;;;;;4.47;3.33;;;29.10;31.40;;;;;;10424976;28;20642;-70
2023/06/21 17:03:09;;;;;;;3.73;3.20;;;29.20;31.70;;;;;;10432543;28;20654;-70
2023/06/21 17:08:13;;;;;;;5.20;2.93;;;29.30;31.40;;;;;;10423040;28;20332;-70
2023/06/21 17:13:16;;;;;;;3.30;3.00;;;29.40;31.10;;;;;;10426443;28;20224;-70
2023/06/21 17:18:21;;;;;;;3.40;2.87;;;29.50;31.20;;;;;;10427433;28;20738;-70
2023/06/21 17:23:24;;;;;;;3.67;3.00;;;29.50;31.20;;;;;;10428069;28;20232;-70
2023/06/21 17:28:27;;;;;;;3.77;2.77;;;29.50;31.20;;;;;;10422980;28;20255;-70
2023/06/21 17:33:31;;;;;;;3.43;3.13;;;29.40;31.10;;;;;;10419311;28;20225;-71
2023/06/21 17:38:35;;;;;;;3.83;3.20;;;29.40;31.10;;;;;;10430633;28;20233;-71
2023/06/21 17:43:38;;;;;;;4.50;3.30;;;29.50;31.20;;;;;;10431131;28;20750;-70
2023/06/21 17:48:42;;;;;;;3.27;3.00;;;29.40;31.10;;;;;;10424051;28;21197;-70
2023/06/21 17:53:46;;;;;;;4.47;3.40;;;29.50;31.20;;;;;;10422710;28;20290;-70
2023/06/21 17:58:49;;;;;;;4.43;3.27;;;29.50;31.20;;;;;;10433359;28;20948;-71
2023/06/21 18:03:54;;;;;;;4.17;3.23;;;29.50;31.20;;;;;;10424489;28;20233;-71
2023/06/21 18:08:57;;;;;;;3.63;3.30;;;29.50;31.20;;;;;;10427257;28;20279;-71
2023/06/21 18:14:00;;;;;;;3.47;3.17;;;29.50;31.20;;;;;;10426057;28;20227;-71
2023/06/21 18:19:05;;;;;;;3.37;3.07;;;29.40;31.10;;;;;;10419849;28;20229;-70
2023/06/21 18:24:09;;;;;;;3.30;3.00;;;29.40;31.20;;;;;;10424143;28;20221;-70
2023/06/21 18:29:13;;;;;;;4.97;3.40;;;29.40;31.10;;;;;;10422903;28;20787;-70
2023/06/21 18:34:17;;;;;;;4.20;3.53;;;29.40;31.20;;;;;;10435818;28;20226;-71
2023/06/21 18:39:20;;;;;;;4.13;3.73;;;29.30;31.40;;;;;;10437013;28;20244;-71
2023/06/21 18:44:24;;;;;;;4.10;3.70;;;29.30;31.50;;;;;;10435585;28;20706;-71
2023/06/21 18:49:28;;;;;;;3.83;3.53;;;29.10;31.50;;;;;;10442165;28;20708;-71
2023/06/21 18:54:31;;;;;;;3.57;3.27;;;29.00;32.00;;;;;;10428669;28;20903;-71
2023/06/21 18:59:35;;;;;;;4.10;3.60;;;29.00;32.00;;;;;;10427799;28;20640;-71
2023/06/21 19:04:40;;;;;;;3.57;3.27;;;29.00;32.30;;;;;;10435741;28;21260;-71
2023/06/21 19:09:46;;;;;;;5.53;3.80;;;28.90;32.20;;;;;;10431723;28;20324;-71
2023/06/21 19:14:49;;;;;;;4.10;3.77;;;28.90;32.40;;;;;;10428889;28;20229;-71
2023/06/21 19:19:54;;;;;;;4.20;3.70;;;28.90;32.20;;;;;;10431211;28;20225;-71
2023/06/21 19:24:57;;;;;;;3.70;3.27;;;28.80;32.30;;;;;;10434481;28;20612;-71
2023/06/21 19:30:00;;;;;;;4.93;3.67;;;28.70;32.40;;;;;;10439756;28;20267;-71
2023/06/21 19:35:06;;;;;;;4.13;3.73;;;28.50;32.40;;;;;;10437547;28;20221;-71
2023/06/21 19:40:11;;;;;;;3.70;3.40;;;28.40;32.90;;;;;;10431578;28;20228;-71
2023/06/21 19:45:15;;;;;;;4.10;3.57;;;28.20;33.00;;;;;;10430256;28;20854;-72
2023/06/21 19:50:19;;;;;;;3.87;3.27;;;28.10;33.10;;;;;;10430473;28;20408;-70
2023/06/21 19:55:22;;;;;;;5.50;4.33;;;28.10;33.80;;;;;;10431745;28;20236;-71
2023/06/21 20:00:26;;;;;;;4.10;3.80;;;28.00;33.70;;;;;;10437409;28;20257;-71
2023/06/21 20:05:31;;;;;;;4.20;3.63;;;27.90;33.80;;;;;;10431220;28;20236;-71
2023/06/21 20:10:34;;;;;;;4.67;4.20;;;27.90;34.10;;;;;;10436063;28;20313;-72
2023/06/21 20:15:37;;;;;;;4.10;3.77;;;27.80;33.80;;;;;;10433546;28;20224;-71
2023/06/21 20:20:43;;;;;;;4.03;3.63;;;27.70;33.80;;;;;;10436019;28;20682;-71
2023/06/21 20:25:46;;;;;;;4.17;3.50;;;27.60;34.20;;;;;;10428247;28;20594;-72
2023/06/21 20:30:49;;;;;;;4.30;3.90;;;27.60;34.10;;;;;;10429783;28;20312;-72
2023/06/21 20:35:54;;;;;;;4.20;3.80;;;27.50;34.20;;;;;;10434889;28;20233;-71
2023/06/21 20:40:59;;;;;;;5.93;4.80;;;27.50;34.50;;;;;;10433614;28;20231;-71
2023/06/21 20:46:05;;;;;;;4.40;3.90;;;27.40;34.30;;;;;;10425824;28;21030;-71
2023/06/21 20:51:10;;;;;;;4.80;4.40;;;27.30;34.50;;;;;;10430233;28;20220;-71
2023/06/21 20:56:13;;;;;;;4.33;3.37;;;27.30;35.00;;;;;;10431014;28;20229;-71
2023/06/21 21:01:16;;;;;;;4.40;4.00;;;27.20;34.60;;;;;;10424170;28;20307;-72
2023/06/21 21:06:21;;;;;;;4.63;4.23;;;27.10;34.70;;;;;;10430987;28;20245;-71
2023/06/21 21:11:24;;;;;;;5.90;4.10;;;27.10;35.00;;;;;;10428825;28;20235;-69
2023/06/21 21:16:29;;;;;;;4.53;4.13;;;27.00;34.50;;;;;;10427458;28;20226;-70
2023/06/21 21:21:34;;;;;;;4.40;3.93;;;26.80;34.80;;;;;;10427272;28;20229;-70
2023/06/21 21:26:37;;;;;;;4.43;4.03;;;26.70;35.50;;;;;;10426945;28;20233;-69
2023/06/21 21:31:40;;;;;;;4.80;4.40;;;26.60;35.20;;;;;;10432244;28;20231;-70
2023/06/21 21:36:45;;;;;;;6.63;4.07;;;26.50;35.40;;;;;;10427052;28;20240;-70
2023/06/21 21:41:48;;;;;;;5.20;4.80;;;26.40;35.80;;;;;;10431753;28;20229;-70
2023/06/21 21:46:51;;;;;;;5.00;4.47;;;26.30;35.70;;;;;;10426808;28;20237;-70
2023/06/21 21:51:55;;;;;;;4.80;4.40;;;26.10;35.90;;;;;;10430328;28;20229;-70
2023/06/21 21:56:59;;;;;;;4.73;4.33;;;26.00;36.30;;;;;;10428236;28;20232;-70
2023/06/21 22:02:02;;;;;;;6.60;4.90;;;26.00;35.90;;;;;;10424928;28;20231;-70
2023/06/21 22:07:07;;;;;;;5.30;4.77;;;25.90;35.90;;;;;;10428784;28;20221;-69
2023/06/21 22:12:11;;;;;;;4.60;4.10;;;25.70;36.70;;;;;;10430368;28;20255;-70
2023/06/21 22:17:15;;;;;;;4.70;4.20;;;25.60;36.60;;;;;;10429871;28;20282;-70
2023/06/21 22:22:21;;;;;;;4.70;4.17;;;25.50;36.70;;;;;;10428662;28;20247;-70
2023/06/21 22:27:24;;;;;;;5.40;4.23;;;25.40;37.00;;;;;;10432311;28;20228;-70
2023/06/21 22:32:29;;;;;;;5.30;4.80;;;25.40;36.90;;;;;;10437861;28;20308;-70
2023/06/21 22:37:35;;;;;;;5.17;4.67;;;25.30;36.90;;;;;;10426509;28;20256;-70
2023/06/21 22:42:39;;;;;;;4.80;4.30;;;25.30;37.50;;;;;;10438064;28;20229;-70
2023/06/21 22:47:42;;;;;;;4.93;4.50;;;25.30;37.10;;;;;;10428447;28;20231;-70
2023/06/21 22:52:51;;;;;;;5.37;4.47;;;25.20;37.20;;;;;;10436145;28;20804;-70
2023/06/21 22:57:56;;;;;;;5.93;4.87;;;25.20;37.80;;;;;;10428312;28;20594;-70
2023/06/21 23:03:03;;;;;;;4.70;4.30;;;25.10;37.10;;;;;;10428181;28;20313;-70
2023/06/21 23:08:09;;;;;;;5.03;4.60;;;25.00;37.00;;;;;;10424918;28;20605;-70
2023/06/21 23:13:12;;;;;;;7.50;4.80;;;25.00;37.70;;;;;;10429985;28;20228;-69
2023/06/21 23:18:15;;;;;;;6.20;4.60;;;24.90;37.60;;;;;;10433763;28;20787;-70
2023/06/21 23:23:19;;;;;;;5.57;4.70;;;24.80;37.40;;;;;;10441385;28;20677;-70
2023/06/21 23:28:22;;;;;;;5.97;5.03;;;24.70;38.10;;;;;;10431298;28;20232;-70
2023/06/21 23:33:33;;;;;;;9.30;4.90;;;24.70;38.10;;;;;;10442512;28;20225;-70
2023/06/21 23:38:43;;;;;;;5.60;4.47;;;24.60;38.30;;;;;;10429486;28;20233;-70
2023/06/21 23:43:46;;;;;;;6.13;4.70;;;24.60;38.70;;;;;;10441791;28;21180;-70
2023/06/21 23:48:49;;;;;;;4.77;4.37;;;24.60;38.10;;;;;;10432319;28;20241;-70
2023/06/21 23:53:54;;;;;;;5.17;4.67;;;24.60;38.20;;;;;;10436088;28;20226;-70
2023/06/21 23:58:57;;;;;;;4.60;4.07;;;24.60;38.50;;;;;;10431848;28;20247;-70
